Planada, CA (95365)

2:49 PM PDT on September 16, 2014 (GMT -0700)
MAP PLANADA (P305) CA PSD | Change Station
CLOSE
Current Station
Personal Weather Station
Location: Planada, CA
Elevation: 419 ft
Nearby Weather Stations

Elev 419 ft 37.35 °N, 120.20 °W | Updated 49 minutes ago

Clear
Clear
93 °F
Feels Like 90 °F
N
8
Wind Variable Wind from SSW
Gusts 0.0 mph

Today
High -- | Low -- °F
--% Chance of Precip.
Yesterday
High -- | Low -- °F
Precip. -- in
6:44 AM 7:07 PM
Last Quarter, 42% visible
Pressure 29.82 in
Visibility 10.0 miles
Clouds Clear
Heat Index 90 °F
Dew Point 48 °F
Humidity 22%
Rainfall -999.00 in
Snow Depth 0 in , 0 in , 0 in
UV 8 out of 12
Pollen 6.80 out of 12
Air Quality Not available.
Flu Activity Not available.
METAR KMCE 162053Z AUTO 33005KT 10SM CLR 32/10 A2982 RMK AO2 SLP097 T03220100 58022

More Conditions Fewer Conditions

Pressure 29.82 in
Visibility 10.0 miles
Clouds Clear
Heat Index 90 °F
Dew Point 48 °F
Humidity 22%
Rainfall -999.00 in
Snow Depth 0 in , 0 in , 0 in
UV 8 out of 12
Pollen 6.80 out of 12
Air Quality Not available.
Flu Activity Not available.
METAR KMCE 162053Z AUTO 33005KT 10SM CLR 32/10 A2982 RMK AO2 SLP097 T03220100 58022

More Conditions Fewer Conditions

10-Day Weather Forecast

Almanac

Astronomy

Sep. 16, 2014 Rise Set
Actual Time 6:44 AM PDT 7:07 PM PDT
Civil Twilight 6:18 AM PDT 7:33 PM PDT
Nautical Twilight 5:47 AM PDT 8:03 PM PDT
Astronomical Twilight 5:16 AM PDT 8:35 PM PDT
Moon 12:03 AM PDT 2:29 PM PDT
Length of Visible Light 13h 15m
Length of Day
12h 23m
Tomorrow will be 2m 21s shorter.
Last Quarter, 42% of the Moon is Illuminated
Today
Last Quarter
Sep 24
New
Oct 1
First Quarter
Oct 8
Full
Oct 15
Last Quarter

Today's Extremes

State Highs State Lows

Community

WunderPhotos

Upload Photos

1,753,895 photos uploaded!

Nearby

Air Quality

  Air Quality AQ Index Pollutant
Yesterday Moderate
OZONE
Tuesday Good
OZONE
Wednesday Good
OZONE
Thursday Good
OZONE
Friday Good
OZONE
Saturday Good
OZONE

Snow Depth

Station Depth Elevation
Summit Meadow 0 in 9122 ft
Adin Mountain 0 in 6200 ft
Rubicon #2 0 in 7500 ft
Leavitt Meadows 1 in 7200 ft
CSS Lab 1 in 6900 ft

Earthquake Activity

City Distance Mag. Time & Date
No recent earthquake activity has been reported nearby.
Minimum magnitude displayed is 2.5.

Coastal Water Temperatures

Place Temperature
No Stations Reporting

Nearby Weather Stations